sensor_id;sensor_type;location;lat;lon;timestamp;P1;durP1;ratioP1;P2;durP2;ratioP2
2966;SDS011;1493;51.496;7.210;2023-08-01T00:01:56;2.77;;;2.20;;
2966;SDS011;1493;51.496;7.210;2023-08-01T00:04:23;2.97;;;2.67;;
2966;SDS011;1493;51.496;7.210;2023-08-01T00:06:50;2.80;;;2.43;;
2966;SDS011;1493;51.496;7.210;2023-08-01T00:09:17;3.70;;;2.40;;
2966;SDS011;1493;51.496;7.210;2023-08-01T00:11:44;2.73;;;2.33;;
2966;SDS011;1493;51.496;7.210;2023-08-01T00:14:12;2.40;;;2.10;;
2966;SDS011;1493;51.496;7.210;2023-08-01T00:16:38;3.00;;;2.03;;
2966;SDS011;1493;51.496;7.210;2023-08-01T00:19:05;3.03;;;2.13;;
2966;SDS011;1493;51.496;7.210;2023-08-01T00:21:32;3.80;;;2.33;;
2966;SDS011;1493;51.496;7.210;2023-08-01T00:23:59;3.03;;;2.47;;
2966;SDS011;1493;51.496;7.210;2023-08-01T00:26:26;10.23;;;2.53;;
2966;SDS011;1493;51.496;7.210;2023-08-01T00:28:52;3.40;;;2.00;;
2966;SDS011;1493;51.496;7.210;2023-08-01T00:31:20;2.30;;;2.10;;
2966;SDS011;1493;51.496;7.210;2023-08-01T00:33:47;3.10;;;2.30;;
2966;SDS011;1493;51.496;7.210;2023-08-01T00:36:14;2.03;;;1.40;;
2966;SDS011;1493;51.496;7.210;2023-08-01T00:38:41;2.80;;;1.50;;
2966;SDS011;1493;51.496;7.210;2023-08-01T00:41:08;2.90;;;1.40;;
2966;SDS011;1493;51.496;7.210;2023-08-01T00:43:35;2.77;;;1.70;;
2966;SDS011;1493;51.496;7.210;2023-08-01T00:46:03;3.37;;;1.57;;
2966;SDS011;1493;51.496;7.210;2023-08-01T00:48:32;2.90;;;1.90;;
2966;SDS011;1493;51.496;7.210;2023-08-01T00:50:59;2.00;;;1.20;;
2966;SDS011;1493;51.496;7.210;2023-08-01T00:53:30;2.40;;;1.43;;
2966;SDS011;1493;51.496;7.210;2023-08-01T00:55:58;2.27;;;1.63;;
2966;SDS011;1493;51.496;7.210;2023-08-01T00:58:25;2.70;;;1.47;;
2966;SDS011;1493;51.496;7.210;2023-08-01T01:00:52;2.40;;;1.53;;
2966;SDS011;1493;51.496;7.210;2023-08-01T01:03:20;2.00;;;1.60;;
2966;SDS011;1493;51.496;7.210;2023-08-01T01:05:49;3.30;;;2.27;;
2966;SDS011;1493;51.496;7.210;2023-08-01T01:08:22;4.33;;;2.47;;
2966;SDS011;1493;51.496;7.210;2023-08-01T01:10:49;2.63;;;2.00;;
2966;SDS011;1493;51.496;7.210;2023-08-01T01:13:16;2.17;;;1.70;;
2966;SDS011;1493;51.496;7.210;2023-08-01T01:15:42;2.63;;;1.87;;
2966;SDS011;1493;51.496;7.210;2023-08-01T01:18:09;3.13;;;2.23;;
2966;SDS011;1493;51.496;7.210;2023-08-01T01:20:37;2.60;;;1.70;;
2966;SDS011;1493;51.496;7.210;2023-08-01T01:23:05;2.07;;;1.50;;
2966;SDS011;1493;51.496;7.210;2023-08-01T01:25:33;1.90;;;1.50;;
2966;SDS011;1493;51.496;7.210;2023-08-01T01:28:02;2.27;;;1.37;;
2966;SDS011;1493;51.496;7.210;2023-08-01T01:30:31;3.23;;;2.10;;
2966;SDS011;1493;51.496;7.210;2023-08-01T01:32:59;2.57;;;1.67;;
2966;SDS011;1493;51.496;7.210;2023-08-01T01:35:27;4.00;;;1.90;;
2966;SDS011;1493;51.496;7.210;2023-08-01T01:37:55;2.57;;;1.90;;
2966;SDS011;1493;51.496;7.210;2023-08-01T01:40:23;2.27;;;1.27;;
2966;SDS011;1493;51.496;7.210;2023-08-01T01:42:50;2.90;;;2.13;;
2966;SDS011;1493;51.496;7.210;2023-08-01T01:45:17;3.27;;;2.67;;
2966;SDS011;1493;51.496;7.210;2023-08-01T01:47:44;3.30;;;3.00;;
2966;SDS011;1493;51.496;7.210;2023-08-01T01:50:10;2.20;;;1.80;;
2966;SDS011;1493;51.496;7.210;2023-08-01T01:52:37;2.67;;;1.80;;
2966;SDS011;1493;51.496;7.210;2023-08-01T01:55:06;2.80;;;1.83;;
2966;SDS011;1493;51.496;7.210;2023-08-01T01:57:33;2.47;;;1.37;;
2966;SDS011;1493;51.496;7.210;2023-08-01T02:00:01;2.90;;;1.40;;
2966;SDS011;1493;51.496;7.210;2023-08-01T02:02:28;2.40;;;1.50;;
2966;SDS011;1493;51.496;7.210;2023-08-01T02:04:55;2.40;;;1.67;;
2966;SDS011;1493;51.496;7.210;2023-08-01T02:07:21;2.40;;;1.77;;
2966;SDS011;1493;51.496;7.210;2023-08-01T02:09:48;2.50;;;2.27;;
2966;SDS011;1493;51.496;7.210;2023-08-01T02:12:16;2.50;;;1.80;;
2966;SDS011;1493;51.496;7.210;2023-08-01T02:14:43;2.40;;;1.80;;
2966;SDS011;1493;51.496;7.210;2023-08-01T02:17:10;2.63;;;2.17;;
2966;SDS011;1493;51.496;7.210;2023-08-01T02:19:37;3.43;;;2.93;;
2966;SDS011;1493;51.496;7.210;2023-08-01T02:22:04;3.27;;;2.70;;
2966;SDS011;1493;51.496;7.210;2023-08-01T02:24:31;5.23;;;3.13;;
2966;SDS011;1493;51.496;7.210;2023-08-01T02:26:58;4.70;;;4.00;;
2966;SDS011;1493;51.496;7.210;2023-08-01T02:29:26;5.53;;;4.53;;
2966;SDS011;1493;51.496;7.210;2023-08-01T02:31:53;7.17;;;4.33;;
2966;SDS011;1493;51.496;7.210;2023-08-01T02:34:20;6.30;;;5.00;;
2966;SDS011;1493;51.496;7.210;2023-08-01T02:36:46;9.50;;;4.23;;
2966;SDS011;1493;51.496;7.210;2023-08-01T02:39:13;6.60;;;4.20;;
2966;SDS011;1493;51.496;7.210;2023-08-01T02:41:40;4.63;;;3.80;;
2966;SDS011;1493;51.496;7.210;2023-08-01T02:44:07;3.83;;;3.43;;
2966;SDS011;1493;51.496;7.210;2023-08-01T02:46:35;5.30;;;3.40;;
2966;SDS011;1493;51.496;7.210;2023-08-01T02:49:02;5.03;;;3.20;;
2966;SDS011;1493;51.496;7.210;2023-08-01T02:51:28;4.90;;;4.17;;
2966;SDS011;1493;51.496;7.210;2023-08-01T02:53:55;5.63;;;4.37;;
2966;SDS011;1493;51.496;7.210;2023-08-01T02:56:22;3.47;;;3.17;;
2966;SDS011;1493;51.496;7.210;2023-08-01T02:58:49;4.90;;;4.17;;
2966;SDS011;1493;51.496;7.210;2023-08-01T03:01:17;6.93;;;4.90;;
2966;SDS011;1493;51.496;7.210;2023-08-01T03:03:45;6.97;;;4.40;;
2966;SDS011;1493;51.496;7.210;2023-08-01T03:06:12;6.57;;;4.47;;
2966;SDS011;1493;51.496;7.210;2023-08-01T03:08:39;4.93;;;4.27;;
2966;SDS011;1493;51.496;7.210;2023-08-01T03:11:06;6.50;;;5.33;;
2966;SDS011;1493;51.496;7.210;2023-08-01T03:13:32;5.30;;;4.80;;
2966;SDS011;1493;51.496;7.210;2023-08-01T03:15:59;10.50;;;5.30;;
2966;SDS011;1493;51.496;7.210;2023-08-01T03:18:26;7.00;;;5.50;;
2966;SDS011;1493;51.496;7.210;2023-08-01T03:20:54;7.50;;;6.23;;
2966;SDS011;1493;51.496;7.210;2023-08-01T03:23:21;6.10;;;5.37;;
2966;SDS011;1493;51.496;7.210;2023-08-01T03:25:48;8.40;;;7.50;;
2966;SDS011;1493;51.496;7.210;2023-08-01T03:28:14;8.80;;;7.57;;
2966;SDS011;1493;51.496;7.210;2023-08-01T03:33:15;10.20;;;8.70;;
2966;SDS011;1493;51.496;7.210;2023-08-01T03:35:42;11.70;;;8.97;;
2966;SDS011;1493;51.496;7.210;2023-08-01T03:38:10;10.40;;;9.30;;
2966;SDS011;1493;51.496;7.210;2023-08-01T03:40:37;12.30;;;9.63;;
2966;SDS011;1493;51.496;7.210;2023-08-01T03:43:04;12.60;;;10.63;;
2966;SDS011;1493;51.496;7.210;2023-08-01T03:45:31;13.07;;;11.10;;
2966;SDS011;1493;51.496;7.210;2023-08-01T03:47:58;15.40;;;12.37;;
2966;SDS011;1493;51.496;7.210;2023-08-01T03:50:25;13.57;;;11.37;;
2966;SDS011;1493;51.496;7.210;2023-08-01T03:52:52;15.80;;;12.90;;
2966;SDS011;1493;51.496;7.210;2023-08-01T03:55:20;15.23;;;12.27;;
2966;SDS011;1493;51.496;7.210;2023-08-01T03:57:47;17.93;;;14.40;;
2966;SDS011;1493;51.496;7.210;2023-08-01T04:00:14;16.43;;;13.10;;
2966;SDS011;1493;51.496;7.210;2023-08-01T04:02:43;20.17;;;15.60;;
2966;SDS011;1493;51.496;7.210;2023-08-01T04:05:10;18.73;;;16.63;;
2966;SDS011;1493;51.496;7.210;2023-08-01T04:07:37;18.60;;;15.10;;
2966;SDS011;1493;51.496;7.210;2023-08-01T04:10:04;17.63;;;15.73;;
2966;SDS011;1493;51.496;7.210;2023-08-01T04:12:34;17.27;;;15.30;;
2966;SDS011;1493;51.496;7.210;2023-08-01T04:15:01;18.23;;;15.27;;
2966;SDS011;1493;51.496;7.210;2023-08-01T04:17:28;18.83;;;15.47;;
2966;SDS011;1493;51.496;7.210;2023-08-01T04:19:55;18.30;;;15.77;;
2966;SDS011;1493;51.496;7.210;2023-08-01T04:22:24;22.17;;;15.90;;
2966;SDS011;1493;51.496;7.210;2023-08-01T04:24:50;16.10;;;13.77;;
2966;SDS011;1493;51.496;7.210;2023-08-01T04:27:17;15.40;;;13.50;;
2966;SDS011;1493;51.496;7.210;2023-08-01T04:29:46;19.10;;;15.10;;
2966;SDS011;1493;51.496;7.210;2023-08-01T04:32:13;18.30;;;14.57;;
2966;SDS011;1493;51.496;7.210;2023-08-01T04:34:40;17.17;;;12.97;;
2966;SDS011;1493;51.496;7.210;2023-08-01T04:37:07;15.33;;;11.63;;
2966;SDS011;1493;51.496;7.210;2023-08-01T04:39:33;12.17;;;10.17;;
2966;SDS011;1493;51.496;7.210;2023-08-01T04:42:00;12.47;;;10.57;;
2966;SDS011;1493;51.496;7.210;2023-08-01T04:44:27;13.80;;;10.90;;
2966;SDS011;1493;51.496;7.210;2023-08-01T04:46:56;18.80;;;11.03;;
2966;SDS011;1493;51.496;7.210;2023-08-01T04:49:22;16.77;;;11.17;;
2966;SDS011;1493;51.496;7.210;2023-08-01T04:51:50;14.23;;;10.93;;
2966;SDS011;1493;51.496;7.210;2023-08-01T04:54:17;16.17;;;10.80;;
2966;SDS011;1493;51.496;7.210;2023-08-01T04:56:44;17.10;;;10.97;;
2966;SDS011;1493;51.496;7.210;2023-08-01T04:59:10;12.83;;;11.23;;
2966;SDS011;1493;51.496;7.210;2023-08-01T05:01:37;14.90;;;10.93;;
2966;SDS011;1493;51.496;7.210;2023-08-01T05:04:06;15.80;;;11.07;;
2966;SDS011;1493;51.496;7.210;2023-08-01T05:06:33;15.40;;;12.20;;
2966;SDS011;1493;51.496;7.210;2023-08-01T05:09:00;16.60;;;12.10;;
2966;SDS011;1493;51.496;7.210;2023-08-01T05:11:27;18.43;;;12.00;;
2966;SDS011;1493;51.496;7.210;2023-08-01T05:13:54;12.50;;;10.50;;
2966;SDS011;1493;51.496;7.210;2023-08-01T05:16:23;15.53;;;11.90;;
2966;SDS011;1493;51.496;7.210;2023-08-01T05:18:50;14.80;;;10.77;;
2966;SDS011;1493;51.496;7.210;2023-08-01T05:21:18;13.50;;;10.57;;
2966;SDS011;1493;51.496;7.210;2023-08-01T05:23:46;16.77;;;12.50;;
2966;SDS011;1493;51.496;7.210;2023-08-01T05:26:13;14.10;;;11.80;;
2966;SDS011;1493;51.496;7.210;2023-08-01T05:28:40;20.50;;;13.10;;
2966;SDS011;1493;51.496;7.210;2023-08-01T05:31:07;16.43;;;12.00;;
2966;SDS011;1493;51.496;7.210;2023-08-01T05:33:34;17.50;;;12.97;;
2966;SDS011;1493;51.496;7.210;2023-08-01T05:36:01;15.37;;;11.23;;
2966;SDS011;1493;51.496;7.210;2023-08-01T05:38:29;18.03;;;11.70;;
2966;SDS011;1493;51.496;7.210;2023-08-01T05:40:57;19.30;;;12.30;;
2966;SDS011;1493;51.496;7.210;2023-08-01T05:43:23;19.33;;;14.60;;
2966;SDS011;1493;51.496;7.210;2023-08-01T05:45:50;15.77;;;12.00;;
2966;SDS011;1493;51.496;7.210;2023-08-01T05:48:17;19.67;;;13.00;;
2966;SDS011;1493;51.496;7.210;2023-08-01T05:50:44;17.23;;;12.47;;
2966;SDS011;1493;51.496;7.210;2023-08-01T05:53:11;18.33;;;13.07;;
2966;SDS011;1493;51.496;7.210;2023-08-01T05:55:39;16.67;;;13.63;;
2966;SDS011;1493;51.496;7.210;2023-08-01T05:58:06;16.53;;;12.87;;
2966;SDS011;1493;51.496;7.210;2023-08-01T06:00:33;17.30;;;14.00;;
2966;SDS011;1493;51.496;7.210;2023-08-01T06:03:00;17.67;;;14.17;;
2966;SDS011;1493;51.496;7.210;2023-08-01T06:05:27;18.67;;;15.70;;
2966;SDS011;1493;51.496;7.210;2023-08-01T06:07:54;15.93;;;14.07;;
2966;SDS011;1493;51.496;7.210;2023-08-01T06:10:21;19.50;;;15.23;;
2966;SDS011;1493;51.496;7.210;2023-08-01T06:12:50;17.73;;;14.90;;
2966;SDS011;1493;51.496;7.210;2023-08-01T06:15:17;17.63;;;15.10;;
2966;SDS011;1493;51.496;7.210;2023-08-01T06:17:44;25.57;;;14.00;;
2966;SDS011;1493;51.496;7.210;2023-08-01T06:20:11;22.03;;;15.67;;
2966;SDS011;1493;51.496;7.210;2023-08-01T06:22:38;18.37;;;15.43;;
2966;SDS011;1493;51.496;7.210;2023-08-01T06:25:05;18.17;;;15.00;;
2966;SDS011;1493;51.496;7.210;2023-08-01T06:27:32;24.07;;;15.70;;
2966;SDS011;1493;51.496;7.210;2023-08-01T06:30:01;17.70;;;15.80;;
2966;SDS011;1493;51.496;7.210;2023-08-01T06:32:27;19.10;;;13.87;;
2966;SDS011;1493;51.496;7.210;2023-08-01T06:34:54;24.40;;;15.27;;
2966;SDS011;1493;51.496;7.210;2023-08-01T06:37:21;16.90;;;14.60;;
2966;SDS011;1493;51.496;7.210;2023-08-01T06:39:48;20.17;;;15.43;;
2966;SDS011;1493;51.496;7.210;2023-08-01T06:42:16;19.13;;;14.30;;
2966;SDS011;1493;51.496;7.210;2023-08-01T06:44:45;21.10;;;15.80;;
2966;SDS011;1493;51.496;7.210;2023-08-01T06:47:13;19.50;;;15.23;;
2966;SDS011;1493;51.496;7.210;2023-08-01T06:49:40;20.43;;;16.63;;
2966;SDS011;1493;51.496;7.210;2023-08-01T06:52:07;22.13;;;16.20;;
2966;SDS011;1493;51.496;7.210;2023-08-01T06:54:34;19.23;;;14.70;;
2966;SDS011;1493;51.496;7.210;2023-08-01T06:57:01;16.27;;;13.07;;
2966;SDS011;1493;51.496;7.210;2023-08-01T06:59:28;17.37;;;14.17;;
2966;SDS011;1493;51.496;7.210;2023-08-01T07:01:55;18.50;;;13.70;;
2966;SDS011;1493;51.496;7.210;2023-08-01T07:04:23;17.30;;;14.90;;
2966;SDS011;1493;51.496;7.210;2023-08-01T07:06:50;19.80;;;16.10;;
2966;SDS011;1493;51.496;7.210;2023-08-01T07:09:17;20.10;;;15.60;;
2966;SDS011;1493;51.496;7.210;2023-08-01T07:11:44;27.00;;;17.00;;
2966;SDS011;1493;51.496;7.210;2023-08-01T07:14:11;18.70;;;16.37;;
2966;SDS011;1493;51.496;7.210;2023-08-01T07:16:37;21.53;;;16.93;;
2966;SDS011;1493;51.496;7.210;2023-08-01T07:19:04;19.40;;;15.37;;
2966;SDS011;1493;51.496;7.210;2023-08-01T07:21:32;16.17;;;14.50;;
2966;SDS011;1493;51.496;7.210;2023-08-01T07:24:00;17.70;;;14.90;;
2966;SDS011;1493;51.496;7.210;2023-08-01T07:26:27;16.63;;;13.77;;
2966;SDS011;1493;51.496;7.210;2023-08-01T07:28:54;19.10;;;14.83;;
2966;SDS011;1493;51.496;7.210;2023-08-01T07:31:21;17.37;;;14.27;;
2966;SDS011;1493;51.496;7.210;2023-08-01T07:33:54;18.07;;;13.67;;
2966;SDS011;1493;51.496;7.210;2023-08-01T07:36:28;20.37;;;13.67;;
2966;SDS011;1493;51.496;7.210;2023-08-01T07:38:56;16.90;;;14.03;;
2966;SDS011;1493;51.496;7.210;2023-08-01T07:41:25;15.50;;;11.37;;
2966;SDS011;1493;51.496;7.210;2023-08-01T07:43:52;13.67;;;12.10;;
2966;SDS011;1493;51.496;7.210;2023-08-01T07:46:19;16.33;;;12.20;;
2966;SDS011;1493;51.496;7.210;2023-08-01T07:48:46;16.30;;;12.03;;
2966;SDS011;1493;51.496;7.210;2023-08-01T07:51:14;15.87;;;10.80;;
2966;SDS011;1493;51.496;7.210;2023-08-01T07:53:41;11.53;;;10.33;;
2966;SDS011;1493;51.496;7.210;2023-08-01T07:56:10;14.23;;;11.27;;
2966;SDS011;1493;51.496;7.210;2023-08-01T07:58:36;12.30;;;10.20;;
2966;SDS011;1493;51.496;7.210;2023-08-01T08:01:03;12.93;;;9.97;;
2966;SDS011;1493;51.496;7.210;2023-08-01T08:03:30;12.40;;;10.53;;
2966;SDS011;1493;51.496;7.210;2023-08-01T08:05:57;13.37;;;8.73;;
2966;SDS011;1493;51.496;7.210;2023-08-01T08:08:24;17.13;;;9.47;;
2966;SDS011;1493;51.496;7.210;2023-08-01T08:10:51;16.23;;;9.37;;
2966;SDS011;1493;51.496;7.210;2023-08-01T08:13:20;11.63;;;10.53;;
2966;SDS011;1493;51.496;7.210;2023-08-01T08:15:47;12.73;;;8.80;;
2966;SDS011;1493;51.496;7.210;2023-08-01T08:18:13;12.17;;;9.10;;
2966;SDS011;1493;51.496;7.210;2023-08-01T08:20:41;14.00;;;9.17;;
2966;SDS011;1493;51.496;7.210;2023-08-01T08:23:09;16.13;;;10.70;;
2966;SDS011;1493;51.496;7.210;2023-08-01T08:25:36;16.80;;;9.03;;
2966;SDS011;1493;51.496;7.210;2023-08-01T08:28:03;17.43;;;11.90;;
2966;SDS011;1493;51.496;7.210;2023-08-01T08:30:31;12.73;;;10.40;;
2966;SDS011;1493;51.496;7.210;2023-08-01T08:32:58;11.60;;;9.20;;
2966;SDS011;1493;51.496;7.210;2023-08-01T08:35:29;14.30;;;9.80;;
2966;SDS011;1493;51.496;7.210;2023-08-01T08:37:57;12.67;;;7.73;;
2966;SDS011;1493;51.496;7.210;2023-08-01T08:40:24;9.53;;;7.93;;
2966;SDS011;1493;51.496;7.210;2023-08-01T08:42:52;13.40;;;9.47;;
2966;SDS011;1493;51.496;7.210;2023-08-01T08:45:19;9.53;;;7.77;;
2966;SDS011;1493;51.496;7.210;2023-08-01T08:47:51;17.07;;;8.30;;
2966;SDS011;1493;51.496;7.210;2023-08-01T08:50:22;12.60;;;8.50;;
2966;SDS011;1493;51.496;7.210;2023-08-01T08:52:50;13.90;;;9.10;;
2966;SDS011;1493;51.496;7.210;2023-08-01T08:55:18;13.93;;;8.13;;
2966;SDS011;1493;51.496;7.210;2023-08-01T08:57:47;10.33;;;7.47;;
2966;SDS011;1493;51.496;7.210;2023-08-01T09:00:16;9.80;;;8.57;;
2966;SDS011;1493;51.496;7.210;2023-08-01T09:02:44;10.30;;;7.77;;
2966;SDS011;1493;51.496;7.210;2023-08-01T09:05:12;12.03;;;9.70;;
2966;SDS011;1493;51.496;7.210;2023-08-01T09:07:39;11.30;;;8.20;;
2966;SDS011;1493;51.496;7.210;2023-08-01T09:10:08;11.63;;;9.57;;
2966;SDS011;1493;51.496;7.210;2023-08-01T09:12:36;11.63;;;8.00;;
2966;SDS011;1493;51.496;7.210;2023-08-01T09:15:03;12.73;;;8.33;;
2966;SDS011;1493;51.496;7.210;2023-08-01T09:17:30;11.63;;;8.87;;
2966;SDS011;1493;51.496;7.210;2023-08-01T09:20:03;14.60;;;7.80;;
2966;SDS011;1493;51.496;7.210;2023-08-01T09:22:32;14.43;;;6.70;;
2966;SDS011;1493;51.496;7.210;2023-08-01T09:25:08;12.07;;;7.10;;
2966;SDS011;1493;51.496;7.210;2023-08-01T09:27:35;9.53;;;5.57;;
2966;SDS011;1493;51.496;7.210;2023-08-01T09:30:05;8.70;;;6.07;;
2966;SDS011;1493;51.496;7.210;2023-08-01T09:32:33;6.47;;;5.50;;
2966;SDS011;1493;51.496;7.210;2023-08-01T09:35:00;6.30;;;5.10;;
2966;SDS011;1493;51.496;7.210;2023-08-01T09:37:38;7.60;;;5.63;;
2966;SDS011;1493;51.496;7.210;2023-08-01T09:40:06;6.90;;;5.70;;
2966;SDS011;1493;51.496;7.210;2023-08-01T09:42:37;6.57;;;4.83;;
2966;SDS011;1493;51.496;7.210;2023-08-01T09:45:06;14.63;;;6.30;;
2966;SDS011;1493;51.496;7.210;2023-08-01T09:47:37;5.87;;;5.30;;
2966;SDS011;1493;51.496;7.210;2023-08-01T09:50:04;7.43;;;4.50;;
2966;SDS011;1493;51.496;7.210;2023-08-01T09:52:32;6.17;;;4.33;;
2966;SDS011;1493;51.496;7.210;2023-08-01T09:55:01;9.00;;;5.07;;
2966;SDS011;1493;51.496;7.210;2023-08-01T09:57:29;6.60;;;5.43;;
2966;SDS011;1493;51.496;7.210;2023-08-01T09:59:59;7.90;;;5.13;;
2966;SDS011;1493;51.496;7.210;2023-08-01T10:02:26;4.80;;;4.30;;
2966;SDS011;1493;51.496;7.210;2023-08-01T10:04:57;6.60;;;5.00;;
2966;SDS011;1493;51.496;7.210;2023-08-01T10:07:27;5.53;;;4.43;;
2966;SDS011;1493;51.496;7.210;2023-08-01T10:09:58;8.43;;;4.67;;
2966;SDS011;1493;51.496;7.210;2023-08-01T10:12:26;5.20;;;3.70;;
2966;SDS011;1493;51.496;7.210;2023-08-01T10:14:54;5.13;;;4.63;;
2966;SDS011;1493;51.496;7.210;2023-08-01T10:17:21;7.27;;;4.60;;
2966;SDS011;1493;51.496;7.210;2023-08-01T10:19:49;6.80;;;4.27;;
2966;SDS011;1493;51.496;7.210;2023-08-01T10:22:16;5.20;;;3.70;;
2966;SDS011;1493;51.496;7.210;2023-08-01T10:24:45;5.13;;;4.00;;
2966;SDS011;1493;51.496;7.210;2023-08-01T10:27:13;5.50;;;4.10;;
2966;SDS011;1493;51.496;7.210;2023-08-01T10:29:42;8.83;;;4.60;;
2966;SDS011;1493;51.496;7.210;2023-08-01T10:32:09;5.60;;;4.50;;
2966;SDS011;1493;51.496;7.210;2023-08-01T10:34:36;9.10;;;5.77;;
2966;SDS011;1493;51.496;7.210;2023-08-01T10:37:04;10.10;;;5.53;;
2966;SDS011;1493;51.496;7.210;2023-08-01T10:39:31;6.67;;;5.50;;
2966;SDS011;1493;51.496;7.210;2023-08-01T10:41:58;8.90;;;6.37;;
2966;SDS011;1493;51.496;7.210;2023-08-01T10:44:26;7.90;;;6.03;;
2966;SDS011;1493;51.496;7.210;2023-08-01T10:46:55;11.13;;;7.77;;
2966;SDS011;1493;51.496;7.210;2023-08-01T10:49:33;10.53;;;7.47;;
2966;SDS011;1493;51.496;7.210;2023-08-01T10:52:01;6.87;;;5.60;;
2966;SDS011;1493;51.496;7.210;2023-08-01T10:54:29;9.40;;;6.87;;
2966;SDS011;1493;51.496;7.210;2023-08-01T10:56:57;8.70;;;6.80;;
2966;SDS011;1493;51.496;7.210;2023-08-01T10:59:24;10.70;;;7.93;;
2966;SDS011;1493;51.496;7.210;2023-08-01T11:01:52;8.77;;;7.80;;
2966;SDS011;1493;51.496;7.210;2023-08-01T11:04:21;11.93;;;8.60;;
2966;SDS011;1493;51.496;7.210;2023-08-01T11:06:50;9.00;;;6.60;;
2966;SDS011;1493;51.496;7.210;2023-08-01T11:09:18;7.10;;;5.97;;
2966;SDS011;1493;51.496;7.210;2023-08-01T11:11:47;10.63;;;6.50;;
2966;SDS011;1493;51.496;7.210;2023-08-01T11:14:16;8.10;;;7.23;;
2966;SDS011;1493;51.496;7.210;2023-08-01T11:16:45;10.73;;;6.40;;
2966;SDS011;1493;51.496;7.210;2023-08-01T11:19:23;9.90;;;5.07;;
2966;SDS011;1493;51.496;7.210;2023-08-01T11:21:52;7.30;;;4.50;;
2966;SDS011;1493;51.496;7.210;2023-08-01T11:24:21;6.53;;;5.60;;
2966;SDS011;1493;51.496;7.210;2023-08-01T11:26:49;7.83;;;5.57;;
2966;SDS011;1493;51.496;7.210;2023-08-01T11:29:17;6.03;;;5.13;;
2966;SDS011;1493;51.496;7.210;2023-08-01T11:31:52;9.77;;;5.37;;
2966;SDS011;1493;51.496;7.210;2023-08-01T11:34:21;7.43;;;6.73;;
2966;SDS011;1493;51.496;7.210;2023-08-01T11:36:48;11.37;;;5.83;;
2966;SDS011;1493;51.496;7.210;2023-08-01T11:39:15;10.77;;;6.70;;
2966;SDS011;1493;51.496;7.210;2023-08-01T11:41:43;8.73;;;7.00;;
2966;SDS011;1493;51.496;7.210;2023-08-01T11:44:10;7.17;;;6.47;;
2966;SDS011;1493;51.496;7.210;2023-08-01T11:46:37;9.77;;;6.80;;
2966;SDS011;1493;51.496;7.210;2023-08-01T11:49:06;8.47;;;7.40;;
2966;SDS011;1493;51.496;7.210;2023-08-01T11:51:39;7.83;;;7.00;;
2966;SDS011;1493;51.496;7.210;2023-08-01T11:54:09;6.90;;;5.47;;
2966;SDS011;1493;51.496;7.210;2023-08-01T11:56:36;7.70;;;6.40;;
2966;SDS011;1493;51.496;7.210;2023-08-01T11:59:13;7.90;;;5.37;;
2966;SDS011;1493;51.496;7.210;2023-08-01T12:01:48;5.63;;;3.53;;
2966;SDS011;1493;51.496;7.210;2023-08-01T12:04:23;5.33;;;2.33;;
2966;SDS011;1493;51.496;7.210;2023-08-01T12:06:51;6.33;;;2.37;;
2966;SDS011;1493;51.496;7.210;2023-08-01T12:09:19;5.03;;;2.90;;
2966;SDS011;1493;51.496;7.210;2023-08-01T12:11:46;6.97;;;2.87;;
2966;SDS011;1493;51.496;7.210;2023-08-01T12:14:13;6.23;;;3.00;;
2966;SDS011;1493;51.496;7.210;2023-08-01T12:16:41;4.30;;;2.53;;
2966;SDS011;1493;51.496;7.210;2023-08-01T12:19:16;4.13;;;2.87;;
2966;SDS011;1493;51.496;7.210;2023-08-01T12:21:43;4.17;;;2.57;;
2966;SDS011;1493;51.496;7.210;2023-08-01T12:24:11;3.77;;;2.40;;
2966;SDS011;1493;51.496;7.210;2023-08-01T12:26:37;5.47;;;4.07;;
2966;SDS011;1493;51.496;7.210;2023-08-01T12:29:04;3.57;;;2.70;;
2966;SDS011;1493;51.496;7.210;2023-08-01T12:31:32;5.80;;;3.47;;
2966;SDS011;1493;51.496;7.210;2023-08-01T12:33:59;6.47;;;3.10;;
2966;SDS011;1493;51.496;7.210;2023-08-01T12:36:27;5.67;;;2.60;;
2966;SDS011;1493;51.496;7.210;2023-08-01T12:38:54;6.80;;;3.80;;
2966;SDS011;1493;51.496;7.210;2023-08-01T12:41:21;4.30;;;3.27;;
2966;SDS011;1493;51.496;7.210;2023-08-01T12:43:47;16.00;;;4.07;;
2966;SDS011;1493;51.496;7.210;2023-08-01T12:46:14;6.27;;;2.90;;
2966;SDS011;1493;51.496;7.210;2023-08-01T12:48:41;7.63;;;3.00;;
2966;SDS011;1493;51.496;7.210;2023-08-01T12:51:09;6.30;;;3.83;;
2966;SDS011;1493;51.496;7.210;2023-08-01T12:53:37;5.90;;;3.50;;
2966;SDS011;1493;51.496;7.210;2023-08-01T12:56:04;7.33;;;3.70;;
2966;SDS011;1493;51.496;7.210;2023-08-01T12:58:31;5.87;;;3.53;;
2966;SDS011;1493;51.496;7.210;2023-08-01T13:00:58;6.97;;;4.60;;
2966;SDS011;1493;51.496;7.210;2023-08-01T13:03:28;7.03;;;4.40;;
2966;SDS011;1493;51.496;7.210;2023-08-01T13:05:55;8.20;;;4.43;;
2966;SDS011;1493;51.496;7.210;2023-08-01T13:08:23;6.40;;;4.83;;
2966;SDS011;1493;51.496;7.210;2023-08-01T13:10:51;4.93;;;4.00;;
2966;SDS011;1493;51.496;7.210;2023-08-01T13:13:18;6.13;;;4.50;;
2966;SDS011;1493;51.496;7.210;2023-08-01T13:15:45;4.70;;;3.70;;
2966;SDS011;1493;51.496;7.210;2023-08-01T13:18:13;5.47;;;3.33;;
2966;SDS011;1493;51.496;7.210;2023-08-01T13:20:40;5.50;;;3.77;;
2966;SDS011;1493;51.496;7.210;2023-08-01T13:23:07;6.40;;;3.20;;
2966;SDS011;1493;51.496;7.210;2023-08-01T13:25:34;5.27;;;3.40;;
2966;SDS011;1493;51.496;7.210;2023-08-01T13:28:02;7.37;;;4.63;;
2966;SDS011;1493;51.496;7.210;2023-08-01T13:30:29;5.83;;;3.10;;
2966;SDS011;1493;51.496;7.210;2023-08-01T13:32:56;2.87;;;2.30;;
2966;SDS011;1493;51.496;7.210;2023-08-01T13:35:23;4.17;;;2.30;;
2966;SDS011;1493;51.496;7.210;2023-08-01T13:37:50;5.40;;;2.30;;
2966;SDS011;1493;51.496;7.210;2023-08-01T13:40:16;3.73;;;2.10;;
2966;SDS011;1493;51.496;7.210;2023-08-01T13:42:43;4.30;;;2.17;;
2966;SDS011;1493;51.496;7.210;2023-08-01T13:45:11;5.20;;;2.63;;
2966;SDS011;1493;51.496;7.210;2023-08-01T13:47:38;4.47;;;1.93;;
2966;SDS011;1493;51.496;7.210;2023-08-01T13:50:05;5.83;;;2.20;;
2966;SDS011;1493;51.496;7.210;2023-08-01T13:52:33;7.80;;;2.23;;
2966;SDS011;1493;51.496;7.210;2023-08-01T13:55:02;7.80;;;2.50;;
2966;SDS011;1493;51.496;7.210;2023-08-01T13:57:29;6.30;;;2.50;;
2966;SDS011;1493;51.496;7.210;2023-08-01T13:59:56;6.13;;;2.40;;
2966;SDS011;1493;51.496;7.210;2023-08-01T14:02:24;4.83;;;2.20;;
2966;SDS011;1493;51.496;7.210;2023-08-01T14:04:54;5.70;;;2.13;;
2966;SDS011;1493;51.496;7.210;2023-08-01T14:07:21;7.43;;;2.30;;
2966;SDS011;1493;51.496;7.210;2023-08-01T14:09:47;4.03;;;2.17;;
2966;SDS011;1493;51.496;7.210;2023-08-01T14:12:14;6.10;;;2.30;;
2966;SDS011;1493;51.496;7.210;2023-08-01T14:14:44;4.17;;;2.50;;
2966;SDS011;1493;51.496;7.210;2023-08-01T14:17:10;5.77;;;2.27;;
2966;SDS011;1493;51.496;7.210;2023-08-01T14:19:39;4.73;;;1.90;;
2966;SDS011;1493;51.496;7.210;2023-08-01T14:22:05;4.80;;;1.77;;
2966;SDS011;1493;51.496;7.210;2023-08-01T14:24:32;4.30;;;2.13;;
2966;SDS011;1493;51.496;7.210;2023-08-01T14:26:59;5.30;;;2.10;;
2966;SDS011;1493;51.496;7.210;2023-08-01T14:29:26;5.20;;;1.90;;
2966;SDS011;1493;51.496;7.210;2023-08-01T14:31:52;8.80;;;2.33;;
2966;SDS011;1493;51.496;7.210;2023-08-01T14:34:19;4.47;;;1.83;;
2966;SDS011;1493;51.496;7.210;2023-08-01T14:36:47;5.20;;;2.00;;
2966;SDS011;1493;51.496;7.210;2023-08-01T14:39:14;3.20;;;1.77;;
2966;SDS011;1493;51.496;7.210;2023-08-01T14:41:41;3.50;;;1.80;;
2966;SDS011;1493;51.496;7.210;2023-08-01T14:44:08;3.13;;;1.63;;
2966;SDS011;1493;51.496;7.210;2023-08-01T14:46:35;5.37;;;2.97;;
2966;SDS011;1493;51.496;7.210;2023-08-01T14:49:02;4.20;;;1.70;;
2966;SDS011;1493;51.496;7.210;2023-08-01T14:51:29;3.93;;;2.10;;
2966;SDS011;1493;51.496;7.210;2023-08-01T14:53:57;5.60;;;2.10;;
2966;SDS011;1493;51.496;7.210;2023-08-01T14:56:24;4.60;;;1.90;;
2966;SDS011;1493;51.496;7.210;2023-08-01T14:58:51;4.83;;;1.90;;
2966;SDS011;1493;51.496;7.210;2023-08-01T15:01:17;6.17;;;2.83;;
2966;SDS011;1493;51.496;7.210;2023-08-01T15:03:44;3.30;;;2.13;;
2966;SDS011;1493;51.496;7.210;2023-08-01T15:06:11;5.83;;;2.20;;
2966;SDS011;1493;51.496;7.210;2023-08-01T15:08:40;5.23;;;1.90;;
2966;SDS011;1493;51.496;7.210;2023-08-01T15:11:08;2.70;;;2.00;;